createdAt,value
2017-11-18T00:01:35.308Z,25.65
2017-11-18T00:04:10.067Z,25.65
2017-11-18T00:06:44.489Z,24.95
2017-11-18T00:09:19.031Z,24.98
2017-11-18T00:11:52.894Z,25.58
2017-11-18T00:14:27.532Z,25.30
2017-11-18T00:17:01.233Z,25.67
2017-11-18T00:19:34.992Z,24.70
2017-11-18T00:22:08.925Z,24.42
2017-11-18T00:24:42.584Z,25.15
2017-11-18T00:27:16.689Z,25.40
2017-11-18T00:29:51.238Z,22.58
2017-11-18T00:32:25.108Z,25.55
2017-11-18T00:34:59.706Z,23.60
2017-11-18T00:37:34.472Z,23.85
2017-11-18T00:40:09.023Z,24.70
2017-11-18T00:42:42.916Z,24.25
2017-11-18T00:45:16.772Z,24.87
2017-11-18T00:47:51.758Z,23.33
2017-11-18T00:50:25.723Z,24.67
2017-11-18T00:53:04.273Z,22.92
2017-11-18T00:55:38.058Z,24.33
2017-11-18T00:58:12.694Z,22.52
2017-11-18T01:00:46.976Z,21.37
2017-11-18T01:03:21.716Z,23.45
2017-11-18T01:05:55.551Z,22.50
2017-11-18T01:08:30.320Z,25.48
2017-11-18T01:11:04.871Z,21.95
2017-11-18T01:13:38.696Z,22.85
2017-11-18T01:16:13.433Z,23.35
2017-11-18T01:18:47.076Z,22.60
2017-11-18T01:21:20.863Z,23.17
2017-11-18T01:23:54.661Z,23.52
2017-11-18T01:26:28.685Z,21.35
2017-11-18T01:29:03.212Z,21.98
2017-11-18T01:31:38.272Z,25.20
2017-11-18T01:34:13.152Z,22.73
2017-11-18T01:36:46.920Z,21.62
2017-11-18T01:39:21.277Z,24.73
2017-11-18T01:41:55.951Z,25.05
2017-11-18T01:44:30.324Z,22.67
2017-11-18T01:47:04.279Z,24.48
2017-11-18T01:49:38.673Z,22.25
2017-11-18T01:52:12.655Z,21.15
2017-11-18T01:54:46.584Z,19.37
2017-11-18T01:57:20.669Z,20.33
2017-11-18T01:59:54.603Z,20.83
2017-11-18T02:02:40.459Z,22.25
2017-11-18T02:05:14.984Z,19.23
2017-11-18T02:07:48.822Z,20.45
2017-11-18T02:10:23.698Z,19.50
2017-11-18T02:12:58.930Z,20.58
2017-11-18T02:15:32.927Z,20.27
2017-11-18T02:18:08.600Z,20.08
2017-11-18T02:20:42.320Z,21.25
2017-11-18T02:23:17.494Z,17.50
2017-11-18T02:25:52.074Z,19.35
2017-11-18T02:28:25.799Z,18.87
2017-11-18T02:31:01.027Z,20.20
2017-11-18T02:33:34.846Z,19.55
2017-11-18T02:36:08.881Z,21.05
2017-11-18T02:38:42.675Z,19.20
2017-11-18T02:41:16.478Z,18.75
2017-11-18T02:43:50.251Z,20.73
2017-11-18T02:46:24.033Z,19.15
2017-11-18T02:48:57.804Z,19.70
2017-11-18T02:51:33.147Z,20.05
2017-11-18T02:54:07.766Z,20.83
2017-11-18T02:56:42.024Z,21.02
2017-11-18T02:59:16.079Z,18.33
2017-11-18T03:01:50.856Z,19.70
2017-11-18T03:04:25.686Z,19.30
2017-11-18T03:06:59.537Z,20.37
2017-11-18T03:09:35.088Z,18.87
2017-11-18T03:12:09.004Z,19.87
2017-11-18T03:14:42.910Z,20.58
2017-11-18T03:17:17.691Z,20.95
2017-11-18T03:19:51.559Z,19.87
2017-11-18T03:22:25.444Z,18.92
2017-11-18T03:25:00.018Z,19.90
2017-11-18T03:27:33.803Z,20.42
2017-11-18T03:30:07.522Z,18.90
2017-11-18T03:32:41.645Z,19.87
2017-11-18T03:35:15.261Z,18.55
2017-11-18T03:37:49.028Z,18.10
2017-11-18T03:40:22.751Z,19.15
2017-11-18T03:42:57.146Z,19.20
2017-11-18T03:45:31.389Z,16.83
2017-11-18T03:48:06.037Z,18.50
2017-11-18T03:50:40.665Z,17.52
2017-11-18T03:53:16.962Z,17.80
2017-11-18T03:55:50.694Z,19.48
2017-11-18T03:58:24.481Z,20.55
2017-11-18T04:00:59.137Z,22.52
2017-11-18T04:03:33.649Z,17.33
2017-11-18T04:06:07.332Z,19.20
2017-11-18T04:08:42.791Z,21.15
2017-11-18T04:11:16.531Z,28.95
2017-11-18T04:13:50.396Z,26.62
2017-11-18T04:16:24.290Z,19.92
2017-11-18T04:18:58.880Z,19.15
2017-11-18T04:21:32.772Z,21.27
2017-11-18T04:24:06.547Z,19.60
2017-11-18T04:26:41.194Z,20.70
2017-11-18T04:29:14.882Z,18.52
2017-11-18T04:31:48.745Z,18.40
2017-11-18T04:34:23.432Z,18.50
2017-11-18T04:36:57.081Z,18.95
2017-11-18T04:39:31.577Z,20.98
2017-11-18T04:42:06.182Z,19.42
2017-11-18T04:44:40.341Z,19.30
2017-11-18T04:47:14.117Z,18.08
2017-11-18T04:49:48.780Z,20.17
2017-11-18T04:52:22.577Z,20.10
2017-11-18T04:54:56.307Z,19.02
2017-11-18T04:57:30.186Z,21.30
2017-11-18T05:00:05.371Z,19.85
2017-11-18T05:02:39.703Z,19.40
2017-11-18T05:05:13.271Z,19.40
2017-11-18T05:07:47.490Z,20.40
2017-11-18T05:10:21.332Z,19.75
2017-11-18T05:12:55.278Z,16.70
2017-11-18T05:15:29.901Z,19.10
2017-11-18T05:18:03.698Z,20.20
2017-11-18T05:20:38.472Z,18.02
2017-11-18T05:23:12.313Z,17.80
2017-11-18T05:25:46.930Z,19.35
2017-11-18T05:28:21.130Z,18.90
2017-11-18T05:30:56.412Z,17.92
2017-11-18T05:33:30.184Z,19.25
2017-11-18T05:36:04.605Z,17.45
2017-11-18T05:38:39.334Z,18.65
2017-11-18T05:41:13.970Z,18.25
2017-11-18T05:43:47.638Z,18.85
2017-11-18T05:46:21.469Z,21.80
2017-11-18T05:48:55.195Z,20.40
2017-11-18T05:51:28.887Z,20.60
2017-11-18T05:54:03.526Z,19.45
2017-11-18T05:56:38.314Z,15.25
2017-11-18T05:59:12.047Z,16.77
2017-11-18T06:01:45.890Z,18.45
2017-11-18T06:04:20.530Z,17.58
2017-11-18T06:06:54.356Z,20.15
2017-11-18T06:09:28.811Z,18.08
2017-11-18T06:12:03.367Z,17.33
2017-11-18T06:14:38.205Z,20.00
2017-11-18T06:17:13.808Z,20.92
2017-11-18T06:19:48.491Z,19.12
2017-11-18T06:22:22.298Z,19.45
2017-11-18T06:24:56.220Z,18.48
2017-11-18T06:27:31.261Z,18.55
2017-11-18T06:30:05.906Z,18.35
2017-11-18T06:32:40.829Z,18.58
2017-11-18T06:35:14.711Z,18.75
2017-11-18T06:37:48.487Z,18.45
2017-11-18T06:40:22.988Z,19.50
2017-11-18T06:42:57.846Z,18.25
2017-11-18T06:45:31.702Z,18.48
2017-11-18T06:48:05.541Z,17.60
2017-11-18T06:50:40.263Z,19.23
2017-11-18T06:53:14.728Z,31.90
2017-11-18T06:55:48.524Z,25.65
2017-11-18T06:58:22.326Z,18.92
2017-11-18T07:00:56.056Z,35.25
2017-11-18T07:03:31.321Z,20.45
2017-11-18T07:06:05.730Z,32.97
2017-11-18T07:08:39.507Z,27.58
2017-11-18T07:11:13.402Z,22.73
2017-11-18T07:13:47.890Z,21.52
2017-11-18T07:16:21.845Z,21.35
2017-11-18T07:18:55.551Z,20.23
2017-11-18T07:21:29.943Z,18.25
2017-11-18T07:24:04.237Z,17.77
2017-11-18T07:26:37.942Z,18.10
2017-11-18T07:29:11.667Z,51.22
2017-11-18T07:31:46.559Z,24.65
2017-11-18T07:34:20.308Z,22.87
2017-11-18T07:36:54.256Z,19.00
2017-11-18T07:39:28.678Z,16.70
2017-11-18T07:42:05.359Z,24.60
2017-11-18T07:44:39.280Z,43.90
2017-11-18T07:47:13.963Z,35.83
2017-11-18T07:49:47.624Z,23.50
2017-11-18T07:52:21.366Z,20.10
2017-11-18T07:54:55.135Z,22.92
2017-11-18T07:57:29.107Z,28.12
2017-11-18T08:00:03.037Z,27.65
2017-11-18T08:02:37.736Z,24.10
2017-11-18T08:05:11.520Z,43.78
2017-11-18T08:07:46.287Z,21.50
2017-11-18T08:10:22.866Z,19.17
2017-11-18T08:12:57.552Z,18.30
2017-11-18T08:15:33.984Z,18.42
2017-11-18T08:18:07.713Z,19.75
2017-11-18T08:20:42.384Z,19.48
2017-11-18T08:23:16.292Z,24.37
2017-11-18T08:25:51.050Z,27.13
2017-11-18T08:28:24.965Z,22.17
2017-11-18T08:30:59.694Z,19.52
2017-11-18T08:33:33.586Z,20.92
2017-11-18T08:36:20.364Z,17.92
2017-11-18T08:38:54.217Z,20.52
2017-11-18T08:41:27.942Z,18.37
2017-11-18T08:44:01.680Z,18.52
2017-11-18T08:46:35.487Z,16.40
2017-11-18T08:49:10.149Z,18.65
2017-11-18T08:51:43.859Z,14.52
2017-11-18T08:54:18.478Z,15.65
2017-11-18T08:56:52.151Z,17.65
2017-11-18T08:59:26.075Z,16.02
2017-11-18T09:02:00.053Z,14.43
2017-11-18T09:04:33.802Z,15.93
2017-11-18T09:07:07.653Z,15.70
2017-11-18T09:09:42.659Z,13.10
2017-11-18T09:12:16.524Z,25.35
2017-11-18T09:14:50.568Z,54.90
2017-11-18T09:17:24.189Z,24.15
2017-11-18T09:19:58.084Z,22.10
2017-11-18T09:22:32.552Z,14.80
2017-11-18T09:25:07.171Z,14.48
2017-11-18T09:27:42.578Z,13.15
2017-11-18T09:30:16.479Z,13.82
2017-11-18T09:32:51.168Z,12.30
2017-11-18T09:35:25.057Z,10.80
2017-11-18T09:37:59.639Z,14.02
2017-11-18T09:40:33.366Z,11.93
2017-11-18T09:43:07.215Z,10.25
2017-11-18T09:45:42.210Z,12.37
2017-11-18T09:48:16.023Z,12.50
2017-11-18T09:50:49.776Z,11.00
2017-11-18T09:53:23.580Z,12.43
2017-11-18T09:55:57.315Z,13.57
2017-11-18T09:58:30.822Z,10.20
2017-11-18T10:01:04.383Z,12.88
2017-11-18T10:03:37.986Z,10.73
2017-11-18T10:06:22.093Z,9.40
2017-11-18T10:08:55.807Z,9.45
2017-11-18T10:11:29.452Z,9.40
2017-11-18T10:14:03.028Z,10.43
2017-11-18T10:16:36.706Z,10.05
2017-11-18T10:19:10.315Z,8.40
2017-11-18T10:21:43.885Z,9.45
2017-11-18T10:24:17.428Z,8.32
2017-11-18T10:26:51.075Z,10.05
2017-11-18T10:29:24.762Z,9.13
2017-11-18T10:31:58.350Z,9.85
2017-11-18T10:34:31.945Z,10.15
2017-11-18T10:37:06.417Z,10.30
2017-11-18T10:39:40.010Z,8.75
2017-11-18T10:42:13.559Z,6.28
2017-11-18T10:44:47.176Z,5.40
2017-11-18T10:47:20.751Z,4.95
2017-11-18T10:49:54.638Z,6.78
2017-11-18T10:52:28.869Z,8.00
2017-11-18T10:55:03.179Z,9.10
2017-11-18T10:57:37.476Z,7.40
2017-11-18T11:00:14.734Z,6.32
2017-11-18T11:02:48.555Z,8.63
2017-11-18T11:05:22.599Z,5.50
2017-11-18T11:07:56.718Z,5.28
2017-11-18T11:10:31.158Z,6.07
2017-11-18T11:13:05.368Z,5.70
2017-11-18T11:15:39.595Z,4.95
2017-11-18T11:18:13.564Z,4.53
2017-11-18T11:20:47.321Z,6.78
2017-11-18T11:23:21.515Z,6.40
2017-11-18T11:25:55.477Z,7.15
2017-11-18T11:28:29.465Z,7.28
2017-11-18T11:31:03.467Z,7.05
2017-11-18T11:33:37.521Z,6.78
2017-11-18T11:36:11.417Z,6.45
2017-11-18T11:38:45.446Z,6.72
2017-11-18T11:41:20.308Z,8.52
2017-11-18T11:43:54.357Z,8.85
2017-11-18T11:46:28.475Z,11.40
2017-11-18T11:49:03.454Z,6.80
2017-11-18T11:51:38.625Z,8.10
2017-11-18T11:54:12.595Z,6.05
2017-11-18T11:56:48.017Z,6.50
2017-11-18T11:59:21.970Z,5.47
2017-11-18T12:01:55.774Z,6.25
2017-11-18T12:04:29.819Z,15.98
2017-11-18T12:07:04.127Z,15.45
2017-11-18T12:09:37.979Z,10.27
2017-11-18T12:12:12.028Z,7.40
2017-11-18T12:14:46.853Z,9.18
2017-11-18T12:17:20.840Z,11.23
2017-11-18T12:19:54.749Z,10.88
2017-11-18T12:22:29.114Z,8.20
2017-11-18T12:25:03.975Z,8.00
2017-11-18T12:27:38.052Z,6.72
2017-11-18T12:30:12.649Z,5.82
2017-11-18T12:32:47.405Z,5.75
2017-11-18T12:35:22.098Z,9.52
2017-11-18T12:37:56.187Z,8.52
2017-11-18T12:40:30.136Z,12.45
2017-11-18T12:43:04.422Z,19.65
2017-11-18T12:45:40.082Z,13.95
2017-11-18T12:48:14.039Z,10.80
2017-11-18T12:50:47.911Z,7.93
2017-11-18T12:53:22.365Z,8.25
2017-11-18T12:55:56.583Z,9.45
2017-11-18T12:58:31.109Z,8.70
2017-11-18T13:01:05.253Z,7.85
2017-11-18T13:03:39.269Z,19.75
2017-11-18T13:06:13.241Z,7.87
2017-11-18T13:08:48.040Z,6.85
2017-11-18T13:11:22.657Z,6.72
2017-11-18T13:13:56.825Z,5.65
2017-11-18T13:16:32.085Z,5.47
2017-11-18T13:19:05.912Z,4.75
2017-11-18T13:21:39.641Z,5.37
2017-11-18T13:24:14.304Z,4.95
2017-11-18T13:26:49.157Z,5.05
2017-11-18T13:29:23.696Z,4.68
2017-11-18T13:31:57.968Z,4.55
2017-11-18T13:34:31.946Z,4.20
2017-11-18T13:37:05.686Z,3.90
2017-11-18T13:39:41.331Z,4.87
2017-11-18T13:42:16.233Z,4.50
2017-11-18T13:44:49.915Z,3.00
2017-11-18T13:47:23.877Z,4.25
2017-11-18T13:49:57.877Z,3.20
2017-11-18T13:52:32.476Z,2.92
2017-11-18T13:55:06.334Z,3.95
2017-11-18T13:57:41.193Z,4.20
2017-11-18T14:00:16.250Z,3.60
2017-11-18T14:02:50.086Z,3.87
2017-11-18T14:05:24.946Z,5.60
2017-11-18T14:07:59.385Z,3.22
2017-11-18T14:10:33.241Z,4.43
2017-11-18T14:13:08.713Z,3.75
2017-11-18T14:15:42.914Z,4.75
2017-11-18T14:18:16.979Z,6.15
2017-11-18T14:20:51.639Z,2.72
2017-11-18T14:23:26.679Z,6.60
2017-11-18T14:26:00.924Z,6.00
2017-11-18T14:28:35.594Z,3.05
2017-11-18T14:31:10.376Z,3.00
2017-11-18T14:33:44.412Z,4.37
2017-11-18T14:36:18.585Z,4.45
2017-11-18T14:38:52.412Z,3.92
2017-11-18T14:41:26.359Z,5.30
2017-11-18T14:44:00.287Z,4.32
2017-11-18T14:46:34.168Z,4.53
2017-11-18T14:49:08.134Z,4.03
2017-11-18T14:51:41.895Z,4.20
2017-11-18T14:54:16.084Z,3.97
2017-11-18T14:56:49.799Z,3.97
2017-11-18T14:59:24.400Z,4.10
2017-11-18T15:01:58.357Z,4.70
2017-11-18T15:04:33.064Z,4.60
2017-11-18T15:07:07.448Z,4.07
2017-11-18T15:09:41.837Z,4.10
2017-11-18T15:12:15.458Z,4.45
2017-11-18T15:14:51.679Z,5.10
2017-11-18T15:17:31.034Z,4.12
2017-11-18T15:20:11.250Z,4.75
2017-11-18T15:22:50.582Z,3.97
2017-11-18T15:25:30.126Z,5.50
2017-11-18T15:28:08.324Z,4.80
2017-11-18T15:44:18.885Z,6.97
2017-11-18T15:47:11.970Z,30.65
2017-11-18T15:49:51.434Z,42.35
2017-11-18T16:05:53.205Z,5.07
2017-11-18T16:08:27.253Z,12.15
2017-11-18T16:11:01.039Z,6.40
2017-11-18T16:13:34.740Z,6.20
2017-11-18T16:16:08.376Z,5.78
2017-11-18T16:18:41.936Z,5.90
2017-11-18T16:21:15.431Z,6.50
2017-11-18T16:23:49.004Z,6.18
2017-11-18T16:26:22.532Z,6.12
2017-11-18T16:28:56.838Z,6.35
2017-11-18T16:31:30.502Z,6.55
2017-11-18T16:34:04.162Z,6.43
2017-11-18T16:36:38.547Z,8.60
2017-11-18T16:39:12.277Z,9.32
2017-11-18T16:41:45.850Z,9.27
2017-11-18T16:44:19.443Z,9.30
2017-11-18T16:46:53.148Z,9.30
2017-11-18T16:49:27.670Z,10.65
2017-11-18T16:52:01.348Z,9.70
2017-11-18T16:54:36.128Z,9.60
2017-11-18T16:57:09.894Z,8.98
2017-11-18T16:59:44.456Z,10.10
2017-11-18T17:02:18.952Z,9.25
2017-11-18T17:04:52.632Z,7.90
2017-11-18T17:07:26.181Z,9.63
2017-11-18T17:09:59.787Z,11.10
2017-11-18T17:12:33.348Z,11.02
2017-11-18T17:15:06.951Z,9.63
2017-11-18T17:17:40.543Z,8.68
2017-11-18T17:20:14.226Z,8.35
2017-11-18T17:22:47.786Z,8.27
2017-11-18T17:25:21.365Z,9.40
2017-11-18T17:27:54.957Z,7.90
2017-11-18T17:30:29.296Z,7.07
2017-11-18T17:33:03.708Z,8.13
2017-11-18T17:35:37.319Z,8.48
2017-11-18T17:38:10.916Z,8.00
2017-11-18T17:40:44.629Z,7.57
2017-11-18T17:43:18.179Z,9.60
2017-11-18T17:45:51.781Z,7.87
2017-11-18T17:48:25.419Z,7.65
2017-11-18T17:50:58.994Z,7.85
2017-11-18T17:53:32.566Z,7.15
2017-11-18T17:56:07.050Z,8.35
2017-11-18T17:58:40.589Z,8.68
2017-11-18T18:01:14.153Z,9.07
2017-11-18T18:03:47.699Z,9.38
2017-11-18T18:06:21.273Z,10.48
2017-11-18T18:08:54.914Z,12.63
2017-11-18T18:11:28.661Z,8.25
2017-11-18T18:14:02.942Z,8.10
2017-11-18T18:16:36.703Z,7.75
2017-11-18T18:19:10.239Z,8.35
2017-11-18T18:21:43.859Z,9.65
2017-11-18T18:24:18.252Z,8.02
2017-11-18T18:26:51.871Z,9.05
2017-11-18T18:29:25.457Z,8.50
2017-11-18T18:31:59.885Z,8.65
2017-11-18T18:34:33.416Z,10.27
2017-11-18T18:37:06.987Z,8.15
2017-11-18T18:39:40.579Z,7.30
2017-11-18T18:42:15.037Z,8.93
2017-11-18T18:44:48.574Z,7.90
2017-11-18T18:47:22.206Z,8.52
2017-11-18T18:49:55.926Z,9.93
2017-11-18T18:52:29.666Z,8.40
2017-11-18T18:55:03.203Z,10.63
2017-11-18T18:57:36.722Z,10.00
2017-11-18T19:00:11.231Z,8.98
2017-11-18T19:02:44.945Z,9.60
2017-11-18T19:05:18.515Z,9.40
2017-11-18T19:07:52.174Z,9.98
2017-11-18T19:10:25.729Z,9.88
2017-11-18T19:12:59.255Z,8.55
2017-11-18T19:15:32.839Z,8.73
2017-11-18T19:18:06.649Z,9.65
2017-11-18T19:20:41.248Z,8.50
2017-11-18T19:23:15.106Z,8.50
2017-11-18T19:25:48.778Z,9.35
2017-11-18T19:28:22.294Z,8.18
2017-11-18T19:30:55.867Z,8.23
2017-11-18T19:33:30.234Z,8.65
2017-11-18T19:36:03.774Z,9.65
2017-11-18T19:38:37.416Z,11.38
2017-11-18T19:41:10.967Z,8.48
2017-11-18T19:43:44.620Z,10.68
2017-11-18T19:46:18.894Z,10.80
2017-11-18T19:48:52.522Z,12.98
2017-11-18T19:51:26.133Z,12.68
2017-11-18T19:53:59.701Z,9.07
2017-11-18T19:56:33.319Z,9.35
2017-11-18T19:59:06.913Z,10.60
2017-11-18T20:01:40.634Z,11.23
2017-11-18T20:04:14.247Z,10.07
2017-11-18T20:06:47.783Z,9.35
2017-11-18T20:09:21.469Z,11.60
2017-11-18T20:11:54.972Z,11.85
2017-11-18T20:14:28.727Z,11.45
2017-11-18T20:17:02.302Z,12.70
2017-11-18T20:19:35.930Z,10.90
2017-11-18T20:22:10.282Z,9.85
2017-11-18T20:24:43.881Z,9.95
2017-11-18T20:27:17.502Z,10.10
2017-11-18T20:29:51.172Z,9.18
2017-11-18T20:32:25.648Z,10.48
2017-11-18T20:34:59.255Z,9.00
2017-11-18T20:37:32.782Z,10.35
2017-11-18T20:40:07.204Z,10.57
2017-11-18T20:42:41.008Z,9.02
2017-11-18T20:45:14.577Z,9.70
2017-11-18T20:47:48.099Z,10.43
2017-11-18T20:50:21.707Z,9.93
2017-11-18T20:52:55.257Z,10.35
2017-11-18T20:55:29.553Z,11.60
2017-11-18T20:58:03.322Z,10.20
2017-11-18T21:00:36.909Z,11.98
2017-11-18T21:03:10.426Z,9.68
2017-11-18T21:05:43.955Z,9.95
2017-11-18T21:08:17.762Z,11.18
2017-11-18T21:10:51.455Z,10.70
2017-11-18T21:13:25.163Z,11.23
2017-11-18T21:15:58.697Z,14.90
2017-11-18T21:18:32.411Z,21.02
2017-11-18T21:21:06.128Z,20.60
2017-11-18T21:23:40.628Z,15.57
2017-11-18T21:26:14.157Z,17.27
2017-11-18T21:28:47.738Z,18.58
2017-11-18T21:31:21.508Z,14.77
2017-11-18T21:33:55.283Z,15.55
2017-11-18T21:36:28.978Z,13.35
2017-11-18T21:39:02.530Z,11.82
2017-11-18T21:41:36.134Z,13.73
2017-11-18T21:44:09.828Z,12.48
2017-11-18T21:46:43.435Z,13.23
2017-11-18T21:49:17.135Z,14.23
2017-11-18T21:51:50.746Z,16.30
2017-11-18T21:54:24.330Z,13.07
2017-11-18T21:56:57.914Z,12.05
2017-11-18T21:59:31.416Z,10.82
2017-11-18T22:02:05.757Z,13.27
2017-11-18T22:04:39.282Z,11.95
2017-11-18T22:07:12.889Z,16.52
2017-11-18T22:09:47.491Z,14.18
2017-11-18T22:12:21.079Z,15.30
2017-11-18T22:14:54.808Z,13.48
2017-11-18T22:17:28.378Z,12.35
2017-11-18T22:20:01.978Z,15.05
2017-11-18T22:22:35.623Z,13.27
2017-11-18T22:25:09.193Z,13.23
2017-11-18T22:27:42.814Z,11.85
2017-11-18T22:30:16.593Z,12.05
2017-11-18T22:32:50.409Z,10.55
2017-11-18T22:35:25.031Z,13.02
2017-11-18T22:37:59.605Z,13.20
2017-11-18T22:40:33.903Z,11.85
2017-11-18T22:43:09.213Z,13.60
2017-11-18T22:45:43.095Z,12.15
2017-11-18T22:48:16.873Z,12.23
2017-11-18T22:50:50.589Z,12.85
2017-11-18T22:53:25.226Z,12.75
2017-11-18T22:56:00.709Z,13.15
2017-11-18T22:58:35.290Z,14.87
2017-11-18T23:01:09.433Z,12.48
2017-11-18T23:03:42.988Z,13.45
2017-11-18T23:06:16.546Z,13.23
2017-11-18T23:08:50.138Z,13.40
2017-11-18T23:11:23.724Z,12.63
2017-11-18T23:13:57.348Z,14.35
2017-11-18T23:16:30.936Z,13.30
2017-11-18T23:19:04.708Z,12.52
2017-11-18T23:21:38.266Z,11.95
2017-11-18T23:24:11.873Z,12.20
2017-11-18T23:26:45.417Z,13.70
2017-11-18T23:29:18.993Z,12.27
2017-11-18T23:31:52.778Z,12.32
2017-11-18T23:34:26.504Z,12.45
2017-11-18T23:37:00.112Z,13.02
2017-11-18T23:39:33.678Z,13.18
2017-11-18T23:42:07.949Z,13.98
2017-11-18T23:44:41.585Z,12.77
2017-11-18T23:47:15.184Z,11.57
2017-11-18T23:49:48.739Z,12.63
2017-11-18T23:52:22.453Z,12.70
2017-11-18T23:54:56.062Z,11.68
2017-11-18T23:57:29.739Z,12.18
